Time;durP1;ratioP1;P1;durP2;ratioP2;P2;SDS_P1;SDS_P2;PMS_P1;PMS_P2;Temp;Humidity;BMP_temperature;BMP_pressure;BME280_temperature;BME280_humidity;BME280_pressure;Samples;Min_cycle;Max_cycle;Signal;HPM_P1;HPM_P2
2022/07/15 00:02:17;;;;;;;3.10;0.90;;;;;;;11.56;73.24;99136.81;1776509;79;20930;-65
2022/07/15 00:04:44;;;;;;;1.87;0.80;;;;;;;11.53;73.29;99137.00;1757481;80;20955;-66
2022/07/15 00:07:11;;;;;;;3.30;0.80;;;;;;;11.50;73.31;99131.96;1772993;79;21589;-66
2022/07/15 00:12:23;;;;;;;3.10;1.05;;;;;;;11.41;73.59;99139.42;1736899;81;21025;-65
2022/07/15 00:14:50;;;;;;;2.22;0.72;;;;;;;11.37;73.69;99132.71;1777682;79;20934;-65
2022/07/15 00:17:17;;;;;;;3.47;1.00;;;;;;;11.34;73.76;99139.44;1749392;81;20997;-65
2022/07/15 00:19:44;;;;;;;1.95;0.60;;;;;;;11.29;73.88;99134.10;1772266;79;21059;-65
2022/07/15 00:22:11;;;;;;;4.62;1.20;;;;;;;11.27;74.02;99134.18;1754950;81;21080;-65
2022/07/15 00:24:38;;;;;;;2.30;0.78;;;;;;;11.27;74.22;99136.80;1758041;79;21047;-65
2022/07/15 00:27:04;;;;;;;3.92;1.50;;;;;;;11.31;74.31;99134.83;1751774;79;21484;-65
2022/07/15 00:29:31;;;;;;;3.03;1.00;;;;;;;11.35;74.45;99138.96;1756209;80;20932;-65
2022/07/15 00:31:59;;;;;;;1.47;0.60;;;;;;;11.39;74.63;99138.66;1762090;79;21033;-66
2022/07/15 00:34:25;;;;;;;4.67;0.85;;;;;;;11.45;74.73;99147.08;1740112;81;26709;-66
2022/07/15 00:36:52;;;;;;;1.40;0.60;;;;;;;11.49;74.71;99149.90;1738306;80;21545;-66
2022/07/15 00:39:20;;;;;;;3.77;0.98;;;;;;;11.56;74.95;99149.89;1759557;81;20946;-66
2022/07/15 00:41:47;;;;;;;3.85;0.50;;;;;;;11.60;74.91;99152.23;1754100;81;21543;-65
2022/07/15 00:44:14;;;;;;;1.92;0.90;;;;;;;11.67;75.09;99157.92;1739821;81;21022;-66
2022/07/15 00:46:41;;;;;;;3.10;0.70;;;;;;;11.71;75.23;99164.66;1758220;80;21030;-65
2022/07/15 00:49:09;;;;;;;;;;;;;;;11.73;75.20;99164.55;1769472;80;21000;-66
2022/07/15 00:51:46;;;;;;;3.90;0.82;;;;;;;11.77;75.39;99171.30;1752591;80;20911;-66
2022/07/15 00:54:16;;;;;;;6.37;0.98;;;;;;;11.77;75.57;99168.20;1756807;79;20983;-65
2022/07/15 00:56:50;;;;;;;4.92;1.10;;;;;;;11.80;75.53;99160.64;1760783;81;21040;-65
2022/07/15 00:59:19;;;;;;;2.45;0.60;;;;;;;11.82;75.66;99164.84;1761122;80;22435;-65
2022/07/15 01:01:47;;;;;;;2.45;0.88;;;;;;;11.81;75.66;99157.92;1759504;80;20973;-65
2022/07/15 01:04:15;;;;;;;3.70;0.85;;;;;;;11.82;75.79;99159.62;1739229;80;21547;-65
2022/07/15 01:06:42;;;;;;;3.05;0.65;;;;;;;11.85;75.85;99164.69;1749010;81;20935;-66
2022/07/15 01:09:09;;;;;;;1.27;0.60;;;;;;;11.86;76.04;99168.98;1734673;81;21001;-66
2022/07/15 01:11:36;;;;;;;1.75;0.60;;;;;;;11.89;76.06;99161.89;1751464;80;21466;-65
2022/07/15 01:14:03;;;;;;;3.35;1.32;;;;;;;11.86;76.19;99162.44;1740356;81;21009;-66
2022/07/15 01:16:31;;;;;;;3.30;0.78;;;;;;;11.85;76.25;99169.92;1748599;81;20937;-66
2022/07/15 01:18:57;;;;;;;2.27;0.75;;;;;;;11.85;76.27;99166.44;1742199;81;21589;-65
2022/07/15 01:21:24;;;;;;;3.62;1.05;;;;;;;11.83;76.27;99154.75;1761749;80;21048;-65
2022/07/15 01:23:51;;;;;;;3.02;1.10;;;;;;;11.83;76.33;99157.37;1736467;80;21608;-65
2022/07/15 01:26:17;;;;;;;3.40;1.00;;;;;;;11.85;76.48;99161.20;1753710;80;20922;-66
2022/07/15 01:28:45;;;;;;;2.27;0.78;;;;;;;11.81;76.46;99152.69;1741547;81;21465;-66
2022/07/15 01:31:12;;;;;;;2.50;0.82;;;;;;;11.78;76.55;99150.73;1764445;80;21017;-66
2022/07/15 01:33:38;;;;;;;1.35;0.70;;;;;;;11.73;76.62;99141.85;1764157;80;21053;-66
2022/07/15 01:36:07;;;;;;;3.72;0.80;;;;;;;11.73;76.79;99141.85;1748360;81;21468;-66
2022/07/15 01:38:34;;;;;;;2.55;0.85;;;;;;;11.71;76.97;99138.52;1743164;80;20985;-66
2022/07/15 01:41:01;;;;;;;2.10;0.70;;;;;;;11.68;76.90;99134.78;1752683;81;29555;-66
2022/07/15 01:43:28;;;;;;;4.60;0.78;;;;;;;11.63;77.09;99133.74;1749271;81;20906;-66
2022/07/15 01:45:55;;;;;;;3.17;0.70;;;;;;;11.59;77.23;99140.55;1747106;81;20988;-66
2022/07/15 01:51:07;;;;;;;3.05;0.68;;;;;;;11.46;77.29;99136.55;1745992;81;21567;-66
2022/07/15 01:53:33;;;;;;;1.00;0.57;;;;;;;11.39;77.31;99133.44;1758991;80;21087;-66
2022/07/15 01:56:00;;;;;;;1.20;0.50;;;;;;;11.33;77.47;99135.11;1734631;81;20979;-65
2022/07/15 01:58:27;;;;;;;2.27;0.73;;;;;;;11.29;77.43;99133.63;1722721;81;21013;-65
2022/07/15 02:00:54;;;;;;;2.40;0.80;;;;;;;11.27;77.69;99128.95;1728492;81;21524;-66
2022/07/15 02:03:20;;;;;;;3.47;0.60;;;;;;;11.27;77.72;99130.27;1733600;81;20975;-66
2022/07/15 02:05:47;;;;;;;1.30;0.50;;;;;;;11.28;77.75;99130.63;1736045;81;21002;-66
2022/07/15 02:08:14;;;;;;;3.02;0.60;;;;;;;11.29;77.94;99140.17;1744834;81;20998;-66
2022/07/15 02:10:40;;;;;;;1.13;0.40;;;;;;;11.30;77.88;99147.06;1749142;81;21055;-65
2022/07/15 02:13:09;;;;;;;2.72;0.68;;;;;;;11.32;77.93;99138.67;1754659;81;21183;-66
2022/07/15 02:15:37;;;;;;;2.08;0.53;;;;;;;11.31;78.16;99138.28;1740704;81;20995;-66
2022/07/15 02:18:05;;;;;;;1.20;0.60;;;;;;;11.31;78.16;99138.28;1752806;81;20949;-66
2022/07/15 02:20:31;;;;;;;;;;;;;;;11.36;78.31;99143.24;1744368;81;21495;-66
2022/07/15 02:22:59;;;;;;;2.15;0.53;;;;;;;11.38;78.54;99142.22;1736558;81;20125;-65
2022/07/15 02:25:28;;;;;;;1.77;0.62;;;;;;;11.40;78.58;99142.98;1738890;81;21079;-66
2022/07/15 02:28:02;;;;;;;5.40;1.82;;;;;;;11.43;78.57;99145.88;1747542;81;21574;-65
2022/07/15 02:30:33;;;;;;;3.27;0.80;;;;;;;11.45;78.58;99134.84;1744811;81;21013;-66
2022/07/15 02:33:01;;;;;;;2.72;1.00;;;;;;;11.48;78.67;99141.66;1746162;81;20997;-65
2022/07/15 02:35:29;;;;;;;3.22;0.90;;;;;;;11.48;78.67;99141.66;1754240;81;20942;-66
2022/07/15 02:37:56;;;;;;;2.85;0.70;;;;;;;11.48;78.69;99132.52;1746781;81;21946;-66
2022/07/15 02:40:23;;;;;;;2.03;0.60;;;;;;;11.46;78.80;99134.41;1748880;81;20990;-66
2022/07/15 02:42:54;;;;;;;2.75;0.78;;;;;;;11.47;78.90;99139.99;1744096;81;21522;-66
2022/07/15 02:45:23;;;;;;;4.62;1.00;;;;;;;11.46;78.94;99143.08;1745668;81;20971;-65
2022/07/15 02:47:51;;;;;;;3.35;0.68;;;;;;;11.49;79.13;99143.36;1745461;79;21043;-65
2022/07/15 02:50:19;;;;;;;2.15;0.85;;;;;;;11.49;79.07;99144.67;1754773;81;21021;-66
2022/07/15 02:52:46;;;;;;;4.15;0.93;;;;;;;11.47;79.05;99142.61;1737308;81;20963;-66
2022/07/15 02:55:14;;;;;;;3.80;0.83;;;;;;;11.45;79.16;99139.23;1748548;81;20921;-66
2022/07/15 02:57:42;;;;;;;3.87;0.62;;;;;;;11.43;79.20;99133.64;1743298;81;21003;-66
2022/07/15 03:00:13;;;;;;;1.47;0.60;;;;;;;11.43;79.20;99133.64;1741309;81;27176;-65
2022/07/15 03:02:41;;;;;;;5.05;1.00;;;;;;;11.43;79.35;99134.95;1739455;81;22352;-66
2022/07/15 03:05:08;;;;;;;5.97;1.10;;;;;;;11.46;79.41;99135.70;1744377;81;20942;-66
2022/07/15 03:07:35;;;;;;;2.75;0.90;;;;;;;11.48;79.43;99133.81;1742651;81;20946;-66
2022/07/15 03:10:04;;;;;;;2.45;0.68;;;;;;;11.48;79.46;99139.87;1763404;79;20951;-66
2022/07/15 03:12:31;;;;;;;3.05;1.30;;;;;;;11.42;79.63;99122.80;1763332;80;20993;-66
2022/07/15 03:14:58;;;;;;;3.10;0.90;;;;;;;11.42;79.63;99122.80;1731246;80;21089;-65
2022/07/15 03:17:24;;;;;;;2.00;0.60;;;;;;;11.54;79.51;99132.14;1734424;81;20994;-66
2022/07/15 03:19:51;;;;;;;2.10;0.80;;;;;;;11.54;79.61;99145.20;1746150;80;20977;-66
2022/07/15 03:22:18;;;;;;;1.07;0.70;;;;;;;11.52;79.55;99140.56;1763512;80;20967;-66
2022/07/15 03:24:45;;;;;;;3.33;0.70;;;;;;;11.50;79.62;99142.42;1735714;81;20963;-66
2022/07/15 03:27:11;;;;;;;3.10;0.93;;;;;;;11.47;79.70;99134.77;1742318;81;21085;-66
2022/07/15 03:29:38;;;;;;;1.33;0.80;;;;;;;11.45;79.72;99134.84;1741701;80;20971;-66
2022/07/15 03:32:06;;;;;;;2.67;1.00;;;;;;;11.45;79.82;99141.84;1737624;80;21649;-67
2022/07/15 03:34:33;;;;;;;1.07;0.62;;;;;;;11.42;79.87;99138.48;1763801;80;20954;-66
2022/07/15 03:37:00;;;;;;;3.95;0.60;;;;;;;11.41;79.85;99142.04;1762664;80;21614;-65
2022/07/15 03:39:26;;;;;;;1.53;0.67;;;;;;;11.41;79.86;99139.42;1772164;80;21420;-65
2022/07/15 03:41:53;;;;;;;1.52;0.62;;;;;;;11.39;79.93;99136.05;1768611;80;21012;-65
2022/07/15 03:44:20;;;;;;;2.92;0.80;;;;;;;11.40;80.09;99145.59;1770026;80;21002;-65
2022/07/15 03:46:47;;;;;;;3.30;0.78;;;;;;;11.45;80.12;99143.16;1732573;80;21424;-66
2022/07/15 03:49:15;;;;;;;2.98;1.12;;;;;;;11.57;80.30;99149.81;1749230;80;22104;-65
2022/07/15 03:51:44;;;;;;;5.35;1.20;;;;;;;11.85;80.17;99143.77;1763165;80;21052;-66
2022/07/15 03:54:11;;;;;;;3.02;0.80;;;;;;;11.96;80.25;99142.23;1780839;80;20945;-66
2022/07/15 03:56:37;;;;;;;4.08;1.00;;;;;;;12.21;80.69;99149.39;1764501;80;20935;-66
2022/07/15 03:59:06;;;;;;;2.60;0.80;;;;;;;13.64;82.08;99144.33;1733633;81;21047;-66
2022/07/15 04:01:34;;;;;;;2.77;0.72;;;;;;;14.73;80.82;99136.59;1745120;79;21050;-67
2022/07/15 04:04:00;;;;;;;4.00;0.85;;;;;;;15.53;80.46;99142.89;1757024;80;21811;-67
2022/07/15 04:06:27;;;;;;;3.67;0.88;;;;;;;16.91;80.31;99129.29;1756336;80;21040;-67
2022/07/15 04:08:54;;;;;;;2.95;0.75;;;;;;;18.21;80.10;99130.55;1753961;81;20951;-67
2022/07/15 04:11:20;;;;;;;2.30;0.80;;;;;;;18.71;77.24;99101.39;1756107;80;21077;-67
2022/07/15 04:13:47;;;;;;;2.33;0.95;;;;;;;18.28;76.42;99134.30;1759500;80;21503;-67
2022/07/15 04:16:14;;;;;;;;;;;;;;;18.83;77.86;99139.97;1773981;80;21136;-66
2022/07/15 04:18:41;;;;;;;;;;;;;;;19.81;77.17;99136.17;1765869;80;20123;-67
2022/07/15 04:21:08;;;;;;;2.58;0.70;;;;;;;20.49;76.66;99130.99;1769704;80;20148;-67
2022/07/15 04:23:34;;;;;;;;;;;;;;;21.35;76.62;99130.42;1752032;81;21576;-67
2022/07/15 04:26:03;;;;;;;4.17;1.07;;;;;;;22.10;75.27;99130.18;1755378;80;20151;-67
2022/07/15 04:28:29;;;;;;;5.10;0.93;;;;;;;22.77;75.04;99140.02;1773476;80;21916;-67
2022/07/15 04:30:56;;;;;;;3.92;1.10;;;;;;;23.33;73.52;99143.70;1739804;81;20903;-68
2022/07/15 04:33:23;;;;;;;;;;;;;;;23.80;73.92;99140.27;1738891;81;20947;-68
2022/07/15 04:35:49;;;;;;;4.78;0.95;;;;;;;24.42;71.47;99130.66;1759666;80;20138;-68
2022/07/15 04:38:16;;;;;;;4.22;1.00;;;;;;;24.70;71.64;99141.21;1749556;81;20993;-67
2022/07/15 04:40:44;;;;;;;;;;;;;;;24.75;70.76;99140.15;1758393;81;21367;-68
2022/07/15 04:43:11;;;;;;;3.33;1.32;;;;;;;24.61;69.72;99136.91;1772489;80;20118;-68
2022/07/15 04:45:37;;;;;;;4.55;1.17;;;;;;;24.93;69.97;99144.38;1765739;80;21459;-68
2022/07/15 04:50:45;;;;;;;10.93;1.50;;;;;;;25.54;69.29;99150.52;1748008;80;21052;-68
2022/07/15 04:50:46;;;;;;;9.15;1.27;;;;;;;26.10;68.61;99146.92;1777134;80;22311;-68
2022/07/15 04:53:13;;;;;;;4.55;1.20;;;;;;;26.50;67.57;99150.09;1754400;81;21965;-68
2022/07/15 04:55:39;;;;;;;23.90;3.27;;;;;;;26.89;67.15;99147.50;1753927;80;21039;-68
2022/07/15 04:58:06;;;;;;;2.52;1.12;;;;;;;27.28;66.49;99132.82;1778327;80;21515;-68
2022/07/15 05:00:33;;;;;;;4.58;1.30;;;;;;;27.25;64.26;99141.73;1763727;80;20957;-68
2022/07/15 05:03:00;;;;;;;4.85;1.20;;;;;;;25.89;62.39;99142.83;1749255;80;21024;-68
2022/07/15 05:05:27;;;;;;;3.50;0.98;;;;;;;24.67;63.29;99142.88;1744408;80;22182;-67
2022/07/15 05:07:53;;;;;;;3.75;0.93;;;;;;;24.61;62.85;99148.92;1759355;81;20982;-68
2022/07/15 05:10:20;;;;;;;3.75;1.17;;;;;;;25.02;62.79;99153.98;1753462;81;20914;-68
2022/07/15 05:12:47;;;;;;;4.95;1.37;;;;;;;25.81;62.73;99140.22;1754647;80;20894;-68
2022/07/15 05:15:14;;;;;;;3.60;1.10;;;;;;;26.43;62.24;99145.13;1769035;80;21456;-67
2022/07/15 05:17:41;;;;;;;3.12;1.42;;;;;;;26.83;60.90;99145.59;1766009;80;21592;-68
2022/07/15 05:20:09;;;;;;;1.90;0.88;;;;;;;27.05;60.54;99145.56;1762266;80;20967;-68
2022/07/15 05:22:36;;;;;;;4.03;1.02;;;;;;;27.04;59.53;99149.28;1777279;80;20943;-68
2022/07/15 05:25:04;;;;;;;2.98;1.00;;;;;;;26.73;58.33;99146.41;1762982;80;20918;-68
2022/07/15 05:27:31;;;;;;;6.65;1.40;;;;;;;26.52;57.46;99148.06;1765454;80;21066;-68
2022/07/15 05:29:58;;;;;;;2.55;0.95;;;;;;;26.39;57.55;99158.58;1766655;80;21925;-68
2022/07/15 05:32:25;;;;;;;6.15;1.07;;;;;;;26.64;56.87;99154.26;1764839;80;21026;-68
2022/07/15 05:34:51;;;;;;;4.67;0.98;;;;;;;26.69;56.69;99159.84;1779802;80;20973;-68
2022/07/15 05:37:18;;;;;;;2.17;1.10;;;;;;;27.17;56.12;99168.19;1782459;80;20914;-68
2022/07/15 05:39:54;;;;;;;4.10;1.40;;;;;;;27.27;55.56;99160.63;1750582;80;21021;-68
2022/07/15 05:42:21;;;;;;;7.55;1.30;;;;;;;27.55;55.17;99165.17;1763287;80;21259;-68
2022/07/15 05:44:48;;;;;;;5.03;1.40;;;;;;;27.92;54.37;99157.78;1756569;81;20990;-68
2022/07/15 05:47:16;;;;;;;2.95;1.10;;;;;;;27.99;54.36;99167.53;1752313;81;21068;-68
2022/07/15 05:49:42;;;;;;;4.67;1.15;;;;;;;27.28;52.62;99173.02;1742474;81;21588;-67
2022/07/15 05:52:09;;;;;;;3.35;1.40;;;;;;;25.61;51.12;99176.85;1741894;80;20977;-67
2022/07/15 05:54:37;;;;;;;6.17;1.50;;;;;;;23.83;50.95;99179.91;1763670;80;21076;-68
2022/07/15 05:57:04;;;;;;;4.55;1.25;;;;;;;22.10;50.89;99187.84;1772090;80;20964;-68
2022/07/15 05:59:31;;;;;;;6.65;1.55;;;;;;;20.69;51.16;99192.22;1749005;80;20958;-67
2022/07/15 06:01:58;;;;;;;18.35;2.42;;;;;;;19.72;51.35;99191.35;1751323;80;21005;-68
2022/07/15 06:04:29;;;;;;;2.50;0.82;;;;;;;19.01;51.81;99196.97;1751041;80;21021;-67
2022/07/15 06:06:55;;;;;;;4.12;1.10;;;;;;;18.44;51.64;99198.05;1761165;80;21086;-66
2022/07/15 06:09:22;;;;;;;4.70;1.15;;;;;;;17.96;52.17;99190.80;1762459;80;20879;-65
2022/07/15 06:11:49;;;;;;;7.35;1.62;;;;;;;17.78;52.49;99194.98;1757487;80;21577;-63
2022/07/15 06:15:12;;;;;;;16.85;2.40;;;;;;;17.75;53.15;99189.96;1870029;76;22711;-64
2022/07/15 06:17:39;;;;;;;7.20;1.67;;;;;;;17.95;53.35;99191.75;1843559;76;20989;-65
2022/07/15 06:20:08;;;;;;;3.70;1.10;;;;;;;18.87;54.54;99188.95;1853745;77;21077;-65
2022/07/15 06:22:35;;;;;;;3.45;1.57;;;;;;;19.48;52.99;99184.33;1859813;77;20985;-65
2022/07/15 06:25:01;;;;;;;23.07;2.05;;;;;;;19.30;53.15;99193.00;1859414;77;20918;-65
2022/07/15 06:27:30;;;;;;;4.15;1.42;;;;;;;19.15;53.27;99202.33;1851124;77;20922;-65
2022/07/15 06:29:59;;;;;;;4.03;1.25;;;;;;;19.18;53.67;99208.17;1853369;77;20983;-65
2022/07/15 06:32:26;;;;;;;5.53;1.40;;;;;;;19.51;54.01;99206.55;1855429;75;21072;-64
2022/07/15 06:34:53;;;;;;;3.02;1.30;;;;;;;20.39;54.67;99208.42;1837839;77;21514;-64
2022/07/15 06:37:19;;;;;;;10.13;1.77;;;;;;;21.38;54.60;99208.48;1841448;77;21016;-64
2022/07/15 06:39:46;;;;;;;5.75;1.65;;;;;;;21.81;53.83;99210.77;1847103;75;21602;-64
2022/07/15 06:42:14;;;;;;;;;;;;;;;21.90;53.89;99208.48;1756928;78;20995;-64
2022/07/15 06:44:41;;;;;;;2.33;1.00;;;;;;;22.47;53.82;99208.79;1785140;79;21960;-65
2022/07/15 06:47:08;;;;;;;8.05;1.55;;;;;;;22.80;53.38;99206.22;1784073;80;20942;-65
2022/07/15 06:49:35;;;;;;;3.45;1.25;;;;;;;22.22;52.67;99209.69;1749265;80;21009;-65
2022/07/15 06:52:02;;;;;;;2.85;1.17;;;;;;;22.07;53.50;99202.28;1774759;79;20997;-64
2022/07/15 06:54:29;;;;;;;6.62;1.10;;;;;;;22.75;53.47;99205.88;1770623;79;21044;-64
2022/07/15 06:56:56;;;;;;;;;;;;;;;22.71;51.10;99211.17;1796318;79;21138;-65
2022/07/15 06:59:23;;;;;;;5.33;1.15;;;;;;;21.67;51.62;99204.20;1792701;79;20218;-65
2022/07/15 07:01:50;;;;;;;6.05;1.35;;;;;;;21.45;52.67;99213.50;1785196;79;21081;-65
2022/07/15 07:04:16;;;;;;;;;;;;;;;21.71;51.22;99211.38;1780087;79;21432;-64
2022/07/15 07:06:43;;;;;;;;;;;;;;;21.94;52.38;99205.86;1784341;79;20158;-65
2022/07/15 07:09:09;;;;;;;;;;;;;;;22.00;50.11;99206.55;1802893;79;22152;-64
2022/07/15 07:11:36;;;;;;;4.05;1.27;;;;;;;21.04;50.12;99206.52;1793631;79;20121;-66
2022/07/15 07:14:02;;;;;;;5.53;1.47;;;;;;;20.26;50.24;99225.52;1776537;79;20894;-65
2022/07/15 07:16:30;;;;;;;;;;;;;;;19.88;51.02;99231.33;1776343;80;20993;-65
2022/07/15 07:18:58;;;;;;;4.92;1.15;;;;;;;19.70;51.01;99227.73;1773757;80;20168;-65
2022/07/15 07:21:25;;;;;;;3.77;1.05;;;;;;;19.23;50.77;99234.23;1768202;80;21170;-65
2022/07/15 07:23:52;;;;;;;4.17;1.15;;;;;;;18.72;50.76;99232.63;1773347;80;20956;-65
2022/07/15 07:26:18;;;;;;;;;;;;;;;18.30;51.08;99239.39;1776793;79;21544;-64
2022/07/15 07:28:46;;;;;;;4.90;1.10;;;;;;;17.97;51.19;99242.64;1772976;80;28244;-65
2022/07/15 07:31:14;;;;;;;3.72;0.88;;;;;;;17.58;51.73;99245.02;1771386;80;20977;-65
2022/07/15 07:33:41;;;;;;;5.47;1.10;;;;;;;17.38;51.73;99246.69;1771970;80;21038;-65
2022/07/15 07:36:08;;;;;;;3.30;1.05;;;;;;;17.20;52.10;99250.38;1773539;80;21515;-65
2022/07/15 07:38:36;;;;;;;4.47;1.20;;;;;;;17.19;52.33;99251.32;1784563;78;21064;-65
2022/07/15 07:41:03;;;;;;;4.15;1.30;;;;;;;17.17;52.49;99257.23;1781092;78;20950;-65
2022/07/15 07:43:32;;;;;;;8.38;1.47;;;;;;;17.17;52.93;99257.72;1770262;79;20961;-65
2022/07/15 07:45:59;;;;;;;4.62;1.12;;;;;;;17.15;53.04;99256.51;1771650;79;21253;-65
2022/07/15 07:48:26;;;;;;;10.00;1.32;;;;;;;17.01;53.49;99266.03;1773529;79;21060;-65
2022/07/15 07:50:53;;;;;;;7.65;1.40;;;;;;;16.76;53.50;99271.95;1766290;79;21040;-65
2022/07/15 07:53:20;;;;;;;4.90;1.45;;;;;;;16.65;53.95;99270.63;1778383;80;21586;-65
2022/07/15 07:55:46;;;;;;;7.03;1.42;;;;;;;16.62;54.32;99269.55;1766654;79;26512;-65
2022/07/15 07:58:20;;;;;;;8.98;1.32;;;;;;;16.67;54.47;99270.03;1761165;79;21536;-65
2022/07/15 08:00:46;;;;;;;6.10;1.25;;;;;;;16.67;54.76;99275.30;1736338;81;21068;-65
2022/07/15 08:03:15;;;;;;;3.33;1.10;;;;;;;16.70;54.93;99271.59;1764009;81;21582;-64
2022/07/15 08:05:42;;;;;;;4.87;1.40;;;;;;;16.69;55.34;99277.80;1741304;81;21508;-65
2022/07/15 08:08:19;;;;;;;2.47;1.02;;;;;;;16.65;55.46;99284.30;1790076;79;21555;-64
2022/07/15 08:10:51;;;;;;;4.12;1.22;;;;;;;16.60;55.66;99279.86;1773802;79;21080;-66
2022/07/15 08:13:21;;;;;;;10.30;1.55;;;;;;;16.60;56.00;99278.54;1769809;78;21574;-65
2022/07/15 08:15:49;;;;;;;4.28;1.10;;;;;;;16.57;56.05;99279.62;1749017;79;21056;-65
2022/07/15 08:18:19;;;;;;;5.92;1.50;;;;;;;16.37;56.30;99293.53;1755530;80;21055;-65
2022/07/15 08:20:48;;;;;;;6.40;1.20;;;;;;;16.15;56.42;99292.55;1741965;81;21070;-65
2022/07/15 08:23:21;;;;;;;7.00;1.12;;;;;;;15.92;56.84;99297.44;1747547;80;21656;-65
2022/07/15 08:25:52;;;;;;;4.55;1.30;;;;;;;15.84;57.56;99298.84;1785372;79;21025;-65
2022/07/15 08:28:20;;;;;;;6.65;1.62;;;;;;;15.70;57.23;99291.16;1782716;78;20928;-65
2022/07/15 08:30:52;;;;;;;5.17;1.27;;;;;;;15.63;57.73;99299.13;1740286;80;20950;-64
2022/07/15 08:33:24;;;;;;;5.92;1.50;;;;;;;15.66;58.09;99293.64;1752207;80;21562;-65
2022/07/15 08:36:01;;;;;;;6.22;1.20;;;;;;;15.65;58.26;99301.16;1739798;79;21301;-64
2022/07/15 08:38:22;;;;;;;6.00;1.57;;;;;;;15.72;58.60;99308.99;1747019;80;21031;-64
2022/07/15 08:40:49;;;;;;;10.68;1.47;;;;;;;15.69;58.47;99296.06;1760475;79;21048;-65
2022/07/15 08:43:18;;;;;;;4.10;0.90;;;;;;;15.52;58.51;99304.36;1764777;79;21024;-64
2022/07/15 08:45:50;;;;;;;5.60;1.12;;;;;;;15.50;59.19;99313.66;1770051;78;21005;-65
2022/07/15 08:48:24;;;;;;;4.87;1.20;;;;;;;15.49;59.17;99310.69;1760694;80;21301;-65
2022/07/15 08:50:58;;;;;;;4.92;1.17;;;;;;;15.58;59.62;99317.05;1749925;80;21479;-64
2022/07/15 08:53:36;;;;;;;2.65;1.12;;;;;;;15.70;60.02;99314.84;1756890;80;21037;-63
2022/07/15 08:55:56;;;;;;;5.20;1.12;;;;;;;15.57;59.53;99320.62;1740641;81;21198;-64
2022/07/15 08:58:25;;;;;;;6.42;1.17;;;;;;;15.37;60.06;99316.35;1754790;80;21079;-63
2022/07/15 09:00:52;;;;;;;3.42;1.22;;;;;;;15.25;60.18;99315.95;1755838;81;21072;-63
2022/07/15 09:03:26;;;;;;;;;;;;;;;15.20;60.54;99325.95;1749870;80;21011;-62
2022/07/15 09:06:11;;;;;;;3.00;1.00;;;;;;;15.11;60.85;99324.00;1747715;80;20286;-61
2022/07/15 09:08:25;;;;;;;7.70;1.27;;;;;;;15.12;61.35;99325.67;1750584;80;21080;-64
2022/07/15 09:11:00;;;;;;;3.40;0.98;;;;;;;15.18;61.98;99314.73;1747306;79;21082;-64
2022/07/15 09:13:34;;;;;;;3.42;1.07;;;;;;;15.49;62.19;99328.23;1758992;79;21150;-64
2022/07/15 09:16:05;;;;;;;4.75;1.52;;;;;;;15.75;62.00;99329.81;1747258;80;21648;-64
2022/07/15 09:18:40;;;;;;;8.93;1.55;;;;;;;15.93;61.96;99328.06;1774566;79;21562;-65
2022/07/15 09:21:29;;;;;;;4.85;1.17;;;;;;;15.98;61.86;99319.34;1740261;80;21115;-65
2022/07/15 09:24:01;;;;;;;3.75;0.90;;;;;;;15.94;61.93;99331.91;1747420;80;21018;-64
2022/07/15 09:26:36;;;;;;;3.83;1.10;;;;;;;15.96;61.93;99334.41;1742895;80;22134;-64
2022/07/15 09:35:04;;;;;;;5.87;1.50;;;;;;;15.86;62.62;99342.18;1780543;78;20926;-65
2022/07/15 09:37:31;;;;;;;6.00;1.77;;;;;;;16.02;62.54;99345.79;1776586;80;21639;-64
2022/07/15 09:40:00;;;;;;;8.30;1.55;;;;;;;16.32;62.55;99347.41;1772848;80;21069;-66
2022/07/15 09:42:27;;;;;;;7.47;1.52;;;;;;;16.80;63.19;99344.21;1780048;78;20969;-66
2022/07/15 09:44:53;;;;;;;3.58;1.42;;;;;;;17.39;63.08;99346.48;1772547;78;21021;-66
2022/07/15 09:47:29;;;;;;;3.15;1.20;;;;;;;17.71;62.80;99340.38;1762637;79;21594;-66
2022/07/15 09:49:49;;;;;;;7.37;1.87;;;;;;;17.88;62.81;99347.27;1777382;79;20985;-66
2022/07/15 09:52:20;;;;;;;5.05;1.67;;;;;;;18.10;62.81;99341.03;1773389;79;20978;-66
2022/07/15 09:54:49;;;;;;;7.03;1.45;;;;;;;17.93;62.26;99336.34;1770302;79;20964;-66
2022/07/15 09:57:19;;;;;;;4.60;1.50;;;;;;;17.57;62.04;99335.75;1767644;79;21663;-66
2022/07/15 09:59:48;;;;;;;7.92;1.90;;;;;;;16.95;62.04;99345.65;1771475;78;21077;-67
2022/07/15 10:02:16;;;;;;;5.47;1.35;;;;;;;16.36;62.33;99344.56;1778460;79;21103;-64
2022/07/15 10:04:46;;;;;;;11.78;2.22;;;;;;;16.03;62.67;99363.29;1783909;78;21124;-66
2022/07/15 10:07:13;;;;;;;4.70;1.45;;;;;;;15.96;63.13;99363.38;1778386;78;21014;-64
2022/07/15 10:09:42;;;;;;;5.03;1.60;;;;;;;16.41;64.09;99361.69;1780812;78;20997;-66
2022/07/15 10:12:19;;;;;;;5.47;1.98;;;;;;;17.21;64.57;99353.61;1789668;78;20996;-65
2022/07/15 10:15:07;;;;;;;5.25;1.60;;;;;;;17.78;64.28;99358.69;1760865;79;20985;-65
2022/07/15 10:17:59;;;;;;;4.92;1.40;;;;;;;17.89;63.50;99371.88;1778623;79;21467;-66
2022/07/15 10:20:56;;;;;;;7.70;1.45;;;;;;;17.42;63.15;99375.27;1788163;79;21143;-66
2022/07/15 10:23:40;;;;;;;4.97;1.00;;;;;;;16.99;63.71;99391.41;1784974;79;21069;-66
2022/07/15 10:26:29;;;;;;;6.60;1.80;;;;;;;16.70;63.76;99379.19;1777677;78;22362;-66
2022/07/15 10:29:03;;;;;;;5.90;1.65;;;;;;;16.53;63.81;99383.61;1782482;79;21448;-65
2022/07/15 10:31:32;;;;;;;4.28;1.20;;;;;;;16.45;64.44;99389.95;1801807;78;21095;-66
2022/07/15 10:34:16;;;;;;;5.42;1.60;;;;;;;16.53;64.59;99382.30;1789354;80;21741;-67
2022/07/15 10:36:54;;;;;;;3.90;1.22;;;;;;;16.65;64.91;99385.28;1809006;78;21084;-66
2022/07/15 10:39:26;;;;;;;7.87;2.15;;;;;;;16.91;65.20;99379.80;1789962;78;20938;-66
2022/07/15 10:42:02;;;;;;;4.62;1.65;;;;;;;17.23;65.27;99390.44;1778344;79;21070;-66
2022/07/15 10:44:32;;;;;;;;;;;;;;;17.70;65.85;99382.25;1787689;79;22003;-67
2022/07/15 10:47:18;;;;;;;3.20;1.60;;;;;;;18.30;65.86;99370.21;1760525;80;20145;-67
2022/07/15 10:49:52;;;;;;;5.83;1.72;;;;;;;18.31;64.81;99366.59;1769869;79;28789;-66
2022/07/15 10:52:25;;;;;;;3.67;0.90;;;;;;;18.01;64.79;99373.52;1786954;79;21492;-67
2022/07/15 10:55:04;;;;;;;4.90;1.42;;;;;;;17.72;63.70;99379.01;1792832;79;21093;-67
2022/07/15 10:57:50;;;;;;;4.47;0.93;;;;;;;17.20;64.07;99388.88;1793255;78;21075;-67
2022/07/15 11:00:37;;;;;;;3.85;1.32;;;;;;;17.00;64.13;99381.73;1785691;79;21473;-64
2022/07/15 11:03:13;;;;;;;4.90;1.52;;;;;;;16.97;64.43;99380.62;1776076;80;20997;-65
2022/07/15 11:05:54;;;;;;;4.45;1.35;;;;;;;17.05;64.80;99387.45;1767869;79;20962;-64
2022/07/15 11:08:40;;;;;;;4.50;1.32;;;;;;;17.51;65.25;99386.41;1769258;79;21476;-64
2022/07/15 11:11:21;;;;;;;8.58;1.62;;;;;;;17.95;64.66;99379.28;1810119;78;21425;-65
2022/07/15 11:13:49;;;;;;;5.45;1.30;;;;;;;17.92;64.46;99389.27;1770576;78;21003;-63
2022/07/15 11:16:20;;;;;;;4.65;1.45;;;;;;;17.85;64.29;99382.35;1777258;78;21550;-65
2022/07/15 11:18:57;;;;;;;6.10;1.22;;;;;;;18.16;64.87;99386.40;1770512;80;21239;-67
2022/07/15 11:21:24;;;;;;;5.20;0.90;;;;;;;18.43;64.49;99390.67;1779534;80;20982;-64
2022/07/15 11:23:56;;;;;;;5.17;1.22;;;;;;;18.37;63.57;99379.28;1785985;80;21117;-67
2022/07/15 11:26:22;;;;;;;7.85;1.35;;;;;;;18.42;63.79;99387.66;1780514;80;20956;-66
2022/07/15 11:28:55;;;;;;;5.80;1.37;;;;;;;18.52;63.53;99391.20;1775967;80;21219;-66
2022/07/15 11:31:23;;;;;;;4.03;1.40;;;;;;;18.47;63.34;99392.08;1728117;81;21559;-65
2022/07/15 11:33:56;;;;;;;3.67;0.95;;;;;;;18.62;63.49;99390.41;1738572;81;21525;-66
2022/07/15 11:36:24;;;;;;;4.12;1.60;;;;;;;18.61;62.77;99388.74;1774798;80;21934;-66
2022/07/15 11:38:51;;;;;;;8.45;1.22;;;;;;;18.40;62.77;99400.19;1759280;81;21088;-66
2022/07/15 11:46:53;;;;;;;5.35;1.35;;;;;;;17.47;63.10;99413.17;1762177;81;20994;-65
2022/07/15 11:49:39;;;;;;;5.08;1.37;;;;;;;18.00;63.02;99405.33;1756238;81;21808;-66
2022/07/15 11:52:13;;;;;;;3.60;0.93;;;;;;;18.58;63.43;99399.58;1752714;81;20989;-65
2022/07/15 11:54:41;;;;;;;3.90;1.42;;;;;;;18.88;62.40;99402.27;1790090;78;21009;-65
2022/07/15 11:57:11;;;;;;;5.75;1.35;;;;;;;18.82;61.83;99397.97;1816232;78;20962;-65
2022/07/15 11:59:39;;;;;;;3.27;1.20;;;;;;;18.70;61.59;99399.84;1815844;78;21051;-65
2022/07/15 12:02:10;;;;;;;;;;;;;;;18.50;61.25;99403.70;1795000;78;21045;-66
2022/07/15 12:04:39;;;;;;;5.05;1.47;;;;;;;18.32;60.33;99406.12;1813549;78;20093;-66